Time;durP1;ratioP1;P1;durP2;ratioP2;P2;SDS_P1;SDS_P2;PMS_P1;PMS_P2;Temp;Humidity;BMP_temperature;BMP_pressure;BME280_temperature;BME280_humidity;BME280_pressure;Samples;Min_cycle;Max_cycle;Signal;HPM_P1;HPM_P2
2020/12/14 00:02:03;;;;;;;62.88;34.95;;;6.00;87.50;;;;;;4950125;29;20038;-71
2020/12/14 00:04:29;;;;;;;62.90;35.20;;;6.10;87.60;;;;;;4945577;29;20494;-71
2020/12/14 00:06:54;;;;;;;60.83;35.10;;;6.10;87.60;;;;;;4941931;29;20020;-70
2020/12/14 00:09:23;;;;;;;61.63;35.05;;;6.10;87.50;;;;;;4952699;29;20378;-70
2020/12/14 00:11:49;;;;;;;61.15;34.72;;;6.10;87.10;;;;;;4941673;29;20020;-70
2020/12/14 00:14:15;;;;;;;71.50;36.90;;;6.00;87.50;;;;;;4948307;29;20059;-70
2020/12/14 00:16:41;;;;;;;65.22;36.38;;;5.90;87.60;;;;;;4947533;29;20062;-71
2020/12/14 00:19:07;;;;;;;61.85;34.33;;;5.90;87.70;;;;;;4951519;29;20505;-71
2020/12/14 00:21:33;;;;;;;60.63;34.97;;;5.90;87.90;;;;;;4940196;29;20028;-70
2020/12/14 00:23:58;;;;;;;65.22;36.42;;;6.00;87.80;;;;;;4948935;29;20498;-71
2020/12/14 00:26:24;;;;;;;65.63;35.50;;;6.00;87.70;;;;;;4945786;29;20031;-71
2020/12/14 00:28:49;;;;;;;68.82;36.15;;;6.00;87.70;;;;;;4942155;29;20038;-71
2020/12/14 00:31:16;;;;;;;64.43;35.90;;;6.00;87.80;;;;;;4951695;29;20043;-71
2020/12/14 00:33:45;;;;;;;62.72;32.88;;;6.00;87.90;;;;;;4952245;29;20039;-71
2020/12/14 00:36:12;;;;;;;63.25;36.20;;;6.00;87.90;;;;;;4944013;29;20023;-71
2020/12/14 00:38:39;;;;;;;61.25;34.92;;;6.00;87.70;;;;;;4944776;29;20094;-71
2020/12/14 00:41:06;;;;;;;60.88;33.70;;;6.00;87.40;;;;;;4951030;29;20030;-71
2020/12/14 00:43:32;;;;;;;65.65;36.22;;;6.00;87.50;;;;;;4939756;29;20474;-71
2020/12/14 00:45:58;;;;;;;64.63;36.15;;;5.80;87.60;;;;;;4948897;29;20032;-70
2020/12/14 00:48:23;;;;;;;67.70;37.00;;;5.70;88.00;;;;;;4945398;29;20192;-70
2020/12/14 00:50:49;;;;;;;70.78;38.28;;;5.50;88.20;;;;;;4925891;29;20023;-70
2020/12/14 00:53:15;;;;;;;70.07;36.70;;;5.40;88.80;;;;;;4951572;28;20038;-70
2020/12/14 00:55:41;;;;;;;70.10;37.60;;;5.30;89.00;;;;;;4939396;29;20039;-71
2020/12/14 00:58:07;;;;;;;84.03;39.97;;;5.10;89.50;;;;;;4955370;28;20023;-70
2020/12/14 01:00:33;;;;;;;77.03;38.45;;;5.00;89.80;;;;;;4952534;28;20027;-71
2020/12/14 01:02:59;;;;;;;72.95;36.58;;;4.90;90.00;;;;;;4955022;28;20042;-70
2020/12/14 01:05:24;;;;;;;86.55;40.47;;;4.80;90.30;;;;;;4939353;29;20024;-70
2020/12/14 01:07:50;;;;;;;87.30;41.83;;;4.70;90.80;;;;;;4950482;29;20083;-70
2020/12/14 01:10:16;;;;;;;86.88;40.13;;;4.60;91.20;;;;;;4943972;29;20020;-70
2020/12/14 01:12:42;;;;;;;84.35;40.60;;;4.50;91.20;;;;;;4943812;29;20123;-70
2020/12/14 01:15:08;;;;;;;83.78;41.08;;;4.50;91.50;;;;;;4950596;29;20089;-70
2020/12/14 01:17:33;;;;;;;77.80;42.85;;;4.30;91.70;;;;;;4939068;29;20024;-71
2020/12/14 01:19:59;;;;;;;80.70;38.58;;;4.30;91.80;;;;;;4949144;29;20026;-71
2020/12/14 01:22:25;;;;;;;92.88;41.92;;;4.30;92.10;;;;;;4944714;29;20098;-70
2020/12/14 01:24:51;;;;;;;84.22;40.20;;;4.20;92.10;;;;;;4940973;29;20034;-70
2020/12/14 01:27:16;;;;;;;81.88;39.15;;;4.10;92.20;;;;;;4951491;29;20123;-70
2020/12/14 01:29:42;;;;;;;92.65;42.10;;;4.10;92.40;;;;;;4937854;29;20031;-70
2020/12/14 01:32:07;;;;;;;92.63;43.22;;;4.10;92.30;;;;;;4947872;29;20390;-70
2020/12/14 01:34:33;;;;;;;97.70;41.30;;;4.00;92.60;;;;;;4945897;29;20027;-70
2020/12/14 01:36:59;;;;;;;82.22;40.20;;;4.00;92.70;;;;;;4940669;29;20442;-70
2020/12/14 01:39:24;;;;;;;80.53;38.83;;;4.00;92.70;;;;;;4951358;29;20030;-69
2020/12/14 01:41:51;;;;;;;81.85;37.10;;;4.00;92.70;;;;;;4938775;29;20132;-69
2020/12/14 01:44:16;;;;;;;69.07;32.90;;;4.00;92.60;;;;;;4945685;29;20099;-69
2020/12/14 01:46:45;;;;;;;72.10;34.53;;;4.00;92.50;;;;;;4946996;29;20110;-70
2020/12/14 01:49:12;;;;;;;68.45;32.40;;;3.80;92.50;;;;;;4939775;29;20027;-69
2020/12/14 01:51:38;;;;;;;65.75;31.88;;;3.80;92.70;;;;;;4950964;29;20024;-69
2020/12/14 01:54:29;;;;;;;67.30;31.92;;;3.80;92.80;;;;;;4936890;29;20032;-69
2020/12/14 01:56:56;;;;;;;72.70;32.88;;;3.70;92.80;;;;;;4948177;29;20039;-70
2020/12/14 01:59:22;;;;;;;64.78;31.63;;;3.60;92.90;;;;;;4938404;29;20372;-70
2020/12/14 02:01:49;;;;;;;56.47;28.15;;;3.60;92.80;;;;;;4940947;29;20098;-70
2020/12/14 02:04:14;;;;;;;52.13;26.33;;;3.60;92.80;;;;;;4946385;29;20499;-70
2020/12/14 02:06:40;;;;;;;49.67;25.80;;;3.50;92.60;;;;;;4946296;29;20031;-70
2020/12/14 02:09:06;;;;;;;43.28;22.48;;;3.50;92.30;;;;;;4939467;29;20412;-69
2020/12/14 02:11:32;;;;;;;37.10;21.15;;;3.50;92.00;;;;;;4950735;29;20094;-69
2020/12/14 02:13:58;;;;;;;39.05;20.05;;;3.50;91.90;;;;;;4940543;29;20061;-69
2020/12/14 02:16:23;;;;;;;35.63;18.88;;;3.50;91.70;;;;;;4944998;29;20051;-69
2020/12/14 02:18:49;;;;;;;34.08;19.30;;;3.40;91.80;;;;;;4947279;29;20027;-69
2020/12/14 02:21:18;;;;;;;29.30;17.33;;;3.40;91.80;;;;;;4936942;29;20024;-70
2020/12/14 02:23:44;;;;;;;29.65;17.33;;;3.40;92.00;;;;;;4938584;29;20027;-69
2020/12/14 02:26:10;;;;;;;32.97;17.77;;;3.40;91.80;;;;;;4946761;29;20110;-69
2020/12/14 02:28:37;;;;;;;33.88;18.55;;;3.30;91.80;;;;;;4945552;29;20106;-70
2020/12/14 02:31:03;;;;;;;37.25;19.45;;;3.30;91.80;;;;;;4939436;29;20032;-69
2020/12/14 02:33:29;;;;;;;33.42;17.77;;;3.30;91.80;;;;;;4949308;29;20070;-69
2020/12/14 02:35:54;;;;;;;36.22;19.77;;;3.20;91.80;;;;;;4940178;29;20429;-69
2020/12/14 02:38:21;;;;;;;31.20;16.85;;;3.20;91.50;;;;;;4945266;29;20082;-69
2020/12/14 02:40:47;;;;;;;37.38;20.17;;;3.20;91.40;;;;;;4946871;29;20066;-69
2020/12/14 02:43:13;;;;;;;35.97;18.10;;;3.10;91.30;;;;;;4938172;28;20097;-69
2020/12/14 02:45:38;;;;;;;33.67;18.20;;;3.00;91.40;;;;;;4949216;29;20526;-69
2020/12/14 02:48:04;;;;;;;30.80;17.50;;;3.00;91.40;;;;;;4941402;29;20159;-69
2020/12/14 02:50:30;;;;;;;36.42;19.52;;;2.90;91.40;;;;;;4942794;29;20019;-69
2020/12/14 02:52:57;;;;;;;34.67;18.25;;;2.90;91.50;;;;;;4948045;28;20040;-69
2020/12/14 02:55:23;;;;;;;35.55;19.92;;;2.90;91.60;;;;;;4938041;29;20047;-69
2020/12/14 02:57:48;;;;;;;35.97;19.63;;;2.80;91.50;;;;;;4953145;29;20442;-69
2020/12/14 03:00:14;;;;;;;34.72;20.20;;;2.80;91.50;;;;;;4945951;29;20031;-70
2020/12/14 03:02:40;;;;;;;34.38;18.23;;;2.70;91.60;;;;;;4946477;29;20027;-69
2020/12/14 03:05:06;;;;;;;39.45;20.13;;;2.70;91.50;;;;;;4951536;29;20019;-70
2020/12/14 03:07:31;;;;;;;40.50;20.73;;;2.60;91.70;;;;;;4941507;29;20024;-69
2020/12/14 03:09:57;;;;;;;38.28;19.85;;;2.60;91.80;;;;;;4951790;29;20467;-69
2020/12/14 03:12:23;;;;;;;39.05;20.98;;;2.60;91.90;;;;;;4946996;29;20038;-69
2020/12/14 03:14:51;;;;;;;43.65;20.73;;;2.60;91.80;;;;;;4944685;29;20031;-69
2020/12/14 03:17:16;;;;;;;42.72;21.05;;;2.60;92.00;;;;;;4953890;29;20031;-69
2020/12/14 03:19:42;;;;;;;44.75;22.70;;;2.60;92.10;;;;;;4941710;29;20394;-69
2020/12/14 03:22:08;;;;;;;44.58;21.70;;;2.50;92.10;;;;;;4948929;29;20467;-69
2020/12/14 03:24:33;;;;;;;45.97;22.55;;;2.50;92.30;;;;;;4947050;29;20514;-69
2020/12/14 03:26:59;;;;;;;48.50;23.90;;;2.40;92.10;;;;;;4943175;29;20115;-69
2020/12/14 03:29:24;;;;;;;45.47;21.70;;;2.40;92.40;;;;;;4953329;29;20122;-69
2020/12/14 03:31:50;;;;;;;48.95;23.85;;;2.30;92.30;;;;;;4942458;29;20058;-69
2020/12/14 03:34:16;;;;;;;46.35;24.08;;;2.30;92.50;;;;;;4948935;29;20455;-69
2020/12/14 03:36:41;;;;;;;46.70;23.20;;;2.40;93.00;;;;;;4949226;29;20027;-69
2020/12/14 03:39:07;;;;;;;44.75;23.02;;;2.50;93.00;;;;;;4941841;29;20035;-69
2020/12/14 03:41:34;;;;;;;45.50;22.17;;;2.50;93.10;;;;;;4953420;28;20109;-69
2020/12/14 03:43:59;;;;;;;42.45;21.48;;;2.60;92.80;;;;;;4943172;29;20030;-69
2020/12/14 03:46:31;;;;;;;43.80;22.38;;;2.60;92.60;;;;;;4947436;29;20023;-69
2020/12/14 03:48:57;;;;;;;48.65;23.45;;;2.60;92.60;;;;;;4951085;29;20391;-69
2020/12/14 03:51:24;;;;;;;48.95;22.58;;;2.70;92.70;;;;;;4940502;29;20032;-69
2020/12/14 03:53:50;;;;;;;36.92;21.38;;;2.80;92.70;;;;;;4949016;29;20039;-69
2020/12/14 03:56:20;;;;;;;38.92;21.35;;;2.90;92.50;;;;;;4948283;28;20090;-69
2020/12/14 03:58:46;;;;;;;37.45;20.25;;;3.00;92.20;;;;;;4949235;29;20105;-69
2020/12/14 04:01:12;;;;;;;34.88;19.02;;;3.00;91.70;;;;;;4940921;29;20027;-69
2020/12/14 04:03:39;;;;;;;34.10;18.00;;;3.00;91.50;;;;;;4953048;29;20060;-68
2020/12/14 04:06:05;;;;;;;30.90;18.20;;;3.00;91.50;;;;;;4942517;29;20027;-69
2020/12/14 04:08:31;;;;;;;28.33;17.88;;;3.00;91.50;;;;;;4946391;29;20038;-69
2020/12/14 04:10:56;;;;;;;30.92;17.17;;;3.00;91.50;;;;;;4950311;29;20050;-69
2020/12/14 04:13:22;;;;;;;26.67;16.05;;;2.90;91.60;;;;;;4939917;29;20122;-69
2020/12/14 04:15:47;;;;;;;26.40;15.95;;;3.00;91.40;;;;;;4951857;29;20118;-68
2020/12/14 04:18:13;;;;;;;27.58;15.85;;;3.00;91.30;;;;;;4943463;29;20027;-68
2020/12/14 04:20:39;;;;;;;28.20;16.20;;;3.00;91.20;;;;;;4943755;29;20031;-68
2020/12/14 04:23:04;;;;;;;28.83;14.98;;;3.00;91.10;;;;;;4951667;29;20485;-68
2020/12/14 04:25:30;;;;;;;23.83;14.80;;;3.00;91.10;;;;;;4939983;29;20433;-68
2020/12/14 04:28:00;;;;;;;22.95;14.05;;;3.00;91.10;;;;;;4950535;29;20086;-69
2020/12/14 04:30:29;;;;;;;24.92;14.93;;;3.00;91.20;;;;;;4944750;29;20111;-69
2020/12/14 04:32:57;;;;;;;27.00;15.20;;;3.00;91.30;;;;;;4942607;29;20126;-69
2020/12/14 04:35:23;;;;;;;25.50;15.77;;;3.00;91.40;;;;;;4952717;29;20533;-69
2020/12/14 04:37:49;;;;;;;21.75;13.18;;;3.00;91.40;;;;;;4939794;29;20035;-69
2020/12/14 04:40:14;;;;;;;24.65;14.70;;;3.00;91.30;;;;;;4947836;29;20019;-70
2020/12/14 04:42:42;;;;;;;25.85;16.10;;;3.00;91.10;;;;;;4948008;29;20464;-69
2020/12/14 04:45:10;;;;;;;26.52;16.33;;;3.10;91.20;;;;;;4941626;29;20036;-70
2020/12/14 04:47:36;;;;;;;25.40;17.20;;;3.10;91.20;;;;;;4952343;29;20523;-71
2020/12/14 04:50:02;;;;;;;31.00;17.33;;;3.20;91.00;;;;;;4942695;29;20027;-70
2020/12/14 04:52:28;;;;;;;28.10;16.55;;;3.10;91.00;;;;;;4945912;29;20024;-70
2020/12/14 04:54:55;;;;;;;38.17;17.45;;;3.10;91.10;;;;;;4949740;28;20090;-69
2020/12/14 04:57:22;;;;;;;35.03;17.55;;;3.10;90.90;;;;;;4954487;28;20031;-70
2020/12/14 04:59:50;;;;;;;30.30;18.13;;;3.10;91.00;;;;;;4940437;29;20483;-69
2020/12/14 05:02:16;;;;;;;39.30;18.65;;;3.10;90.80;;;;;;4947301;29;20487;-70
2020/12/14 05:04:42;;;;;;;36.75;19.15;;;3.00;91.10;;;;;;4946203;29;20062;-70
2020/12/14 05:07:08;;;;;;;37.53;21.23;;;2.90;91.20;;;;;;4939933;29;20366;-69
2020/12/14 05:09:34;;;;;;;41.25;21.02;;;2.80;91.20;;;;;;4951972;29;20035;-69
2020/12/14 05:12:00;;;;;;;43.38;21.40;;;2.70;91.30;;;;;;4941759;29;20019;-69
2020/12/14 05:14:27;;;;;;;43.05;20.95;;;2.60;91.50;;;;;;4945814;29;20032;-69
2020/12/14 05:16:54;;;;;;;54.03;23.13;;;2.60;91.90;;;;;;4948267;28;20030;-69
2020/12/14 05:19:20;;;;;;;51.90;24.55;;;2.60;92.40;;;;;;4938863;29;20027;-69
2020/12/14 05:21:52;;;;;;;56.70;25.15;;;2.50;92.70;;;;;;4950741;28;20019;-69
2020/12/14 05:24:22;;;;;;;48.50;22.15;;;2.60;92.80;;;;;;4944074;29;20102;-69
2020/12/14 05:26:48;;;;;;;45.10;20.85;;;2.60;92.80;;;;;;4942725;29;20031;-69
2020/12/14 05:29:23;;;;;;;47.22;22.17;;;2.70;92.70;;;;;;4950026;29;20026;-69
2020/12/14 05:32:17;;;;;;;47.50;22.30;;;2.70;92.60;;;;;;4940082;29;20027;-69
2020/12/14 05:34:44;;;;;;;41.30;19.88;;;2.60;92.50;;;;;;4941815;28;20028;-69
2020/12/14 05:37:12;;;;;;;47.85;21.35;;;2.60;92.60;;;;;;4950541;29;20415;-69
2020/12/14 05:39:39;;;;;;;37.63;20.10;;;2.60;92.60;;;;;;4938657;29;20482;-69
2020/12/14 05:42:14;;;;;;;35.28;19.33;;;2.70;92.60;;;;;;4947923;28;20071;-70
2020/12/14 05:44:41;;;;;;;41.10;19.77;;;2.70;92.60;;;;;;4946309;29;20107;-69
2020/12/14 05:47:22;;;;;;;42.15;20.83;;;2.70;92.60;;;;;;4939425;28;20028;-69
2020/12/14 05:49:48;;;;;;;45.67;21.80;;;2.70;92.80;;;;;;4939828;29;20031;-69
2020/12/14 05:52:18;;;;;;;49.58;24.20;;;2.70;92.80;;;;;;4945169;29;20395;-69
2020/12/14 05:54:55;;;;;;;49.13;23.13;;;2.70;92.90;;;;;;4947620;29;20043;-69
2020/12/14 05:57:37;;;;;;;54.50;25.40;;;2.80;93.00;;;;;;4938174;28;20123;-69
2020/12/14 06:00:06;;;;;;;;;;;2.80;93.20;;;;;;4948278;29;20558;-69
2020/12/14 06:02:33;;;;;;;58.50;25.67;;;2.80;93.30;;;;;;4945053;29;19906;-68
2020/12/14 06:05:03;;;;;;;53.80;25.65;;;2.80;93.40;;;;;;4940535;29;20071;-69
2020/12/14 06:07:30;;;;;;;59.15;27.38;;;2.80;93.40;;;;;;4949499;29;20035;-69
2020/12/14 06:10:13;;;;;;;55.22;25.77;;;2.80;93.40;;;;;;4940008;29;20041;-70
2020/12/14 06:12:47;;;;;;;54.70;24.17;;;2.80;93.50;;;;;;4943010;29;20043;-70
2020/12/14 06:15:15;;;;;;;58.20;24.98;;;2.80;93.70;;;;;;4948884;29;20024;-69
2020/12/14 06:17:41;;;;;;;54.67;24.83;;;2.90;93.70;;;;;;4936739;29;20031;-70
2020/12/14 06:20:14;;;;;;;51.58;23.58;;;2.90;93.70;;;;;;4946899;29;20418;-70
2020/12/14 06:22:57;;;;;;;56.63;25.42;;;2.90;93.70;;;;;;4935752;29;20042;-71
2020/12/14 06:25:23;;;;;;;56.10;23.58;;;3.00;93.70;;;;;;4950382;29;20070;-69
2020/12/14 06:27:49;;;;;;;46.53;20.73;;;3.00;93.60;;;;;;4938451;29;20037;-70
2020/12/14 06:30:27;;;;;;;40.78;20.17;;;3.10;93.60;;;;;;4946038;29;20067;-70
2020/12/14 06:33:31;;;;;;;44.78;20.83;;;3.10;93.30;;;;;;4946995;29;20561;-70
2020/12/14 06:36:13;;;;;;;39.92;20.40;;;3.10;93.20;;;;;;4940058;29;20039;-70
2020/12/14 06:38:39;;;;;;;;;;;3.00;93.30;;;;;;4943138;29;20094;-70
2020/12/14 06:41:20;;;;;;;41.65;19.00;;;3.00;93.10;;;;;;4948635;28;19906;-71
2020/12/14 06:43:48;;;;;;;35.20;18.00;;;3.00;93.20;;;;;;4938624;29;20023;-69
2020/12/14 06:46:26;;;;;;;44.00;19.92;;;2.90;93.10;;;;;;4945992;29;20111;-69
2020/12/14 06:48:53;;;;;;;39.67;18.50;;;2.80;93.20;;;;;;4947120;29;20031;-70
2020/12/14 06:51:19;;;;;;;38.25;17.98;;;2.80;93.40;;;;;;4937552;29;20024;-69
2020/12/14 06:53:55;;;;;;;35.97;18.50;;;2.90;93.40;;;;;;4951341;28;20501;-69
2020/12/14 06:56:26;;;;;;;31.60;16.05;;;2.90;93.20;;;;;;4953233;28;20051;-70
2020/12/14 06:58:52;;;;;;;31.80;16.60;;;2.80;93.30;;;;;;4940625;29;20020;-70
2020/12/14 07:01:40;;;;;;;34.42;17.85;;;3.00;93.40;;;;;;4950167;28;20023;-70
2020/12/14 07:04:15;;;;;;;29.08;15.80;;;3.00;93.30;;;;;;5003636;23;20049;-69
2020/12/14 07:06:41;;;;;;;34.17;17.13;;;3.00;93.20;;;;;;5002259;28;20022;-70
2020/12/14 07:09:29;;;;;;;33.20;18.17;;;3.00;93.40;;;;;;5026967;28;20037;-69
2020/12/14 07:12:09;;;;;;;40.85;19.52;;;3.10;93.40;;;;;;5016848;28;20087;-69
2020/12/14 07:14:59;;;;;;;29.17;15.20;;;3.20;93.30;;;;;;5020558;28;20056;-70
2020/12/14 07:17:24;;;;;;;44.25;21.77;;;3.20;93.30;;;;;;5027658;28;20518;-68
2020/12/14 07:19:54;;;;;;;50.85;24.05;;;3.20;93.30;;;;;;5016134;28;20029;-69
2020/12/14 07:22:32;;;;;;;49.75;23.48;;;3.20;93.50;;;;;;5022694;28;20048;-69
2020/12/14 07:24:58;;;;;;;46.97;23.45;;;3.20;93.50;;;;;;5025422;28;20056;-71
2020/12/14 07:27:24;;;;;;;61.05;27.13;;;3.30;93.60;;;;;;5014732;28;20046;-73
2020/12/14 07:29:50;;;;;;;59.17;27.23;;;3.30;93.80;;;;;;5026600;28;20022;-74
2020/12/14 07:32:15;;;;;;;54.88;27.55;;;3.40;93.70;;;;;;5002035;28;20032;-76
2020/12/14 07:34:52;;;;;;;58.33;26.33;;;3.40;93.90;;;;;;5019464;28;20108;-72
2020/12/14 07:37:21;;;;;;;56.53;28.13;;;3.50;93.90;;;;;;5027547;28;20108;-73
2020/12/14 07:39:48;;;;;;;57.50;27.98;;;3.50;93.80;;;;;;5016978;28;20052;-73
2020/12/14 07:42:26;;;;;;;52.35;27.13;;;3.60;93.80;;;;;;5007055;28;20034;-73
2020/12/14 07:45:09;;;;;;;62.55;28.50;;;3.60;93.80;;;;;;5008545;28;20100;-73
2020/12/14 07:47:35;;;;;;;63.75;27.67;;;3.70;94.00;;;;;;4998530;28;20027;-74
2020/12/14 07:50:09;;;;;;;53.15;27.83;;;3.80;93.80;;;;;;5007002;28;20482;-74
2020/12/14 07:52:36;;;;;;;51.28;26.70;;;3.90;93.60;;;;;;5002263;28;20041;-78
2020/12/14 07:55:03;;;;;;;47.97;25.13;;;4.10;93.40;;;;;;4999518;28;20018;-75
2020/12/14 07:57:32;;;;;;;45.17;25.60;;;4.10;92.90;;;;;;4994899;28;20481;-75
2020/12/14 07:59:58;;;;;;;42.10;23.52;;;4.30;92.60;;;;;;5008071;28;20018;-77
2020/12/14 08:02:29;;;;;;;45.97;24.77;;;4.50;92.20;;;;;;4993771;28;20034;-77
2020/12/14 08:05:06;;;;;;;39.55;23.52;;;4.70;91.90;;;;;;5007766;28;20044;-82
2020/12/14 08:07:52;;;;;;;39.03;22.75;;;4.90;91.00;;;;;;4979889;28;20026;-80
2020/12/14 08:10:40;;;;;;;39.63;22.60;;;5.00;90.60;;;;;;5005135;28;20034;-73
2020/12/14 08:13:11;;;;;;;36.25;22.10;;;5.20;89.70;;;;;;4991017;28;20041;-81
2020/12/14 08:15:38;;;;;;;35.30;21.60;;;5.30;89.70;;;;;;4979709;28;20053;-79
2020/12/14 08:18:13;;;;;;;37.88;22.02;;;5.40;89.10;;;;;;4989039;28;20506;-79
2020/12/14 08:20:41;;;;;;;34.45;20.60;;;5.50;88.70;;;;;;5005059;28;20027;-75
2020/12/14 08:23:20;;;;;;;37.42;21.48;;;5.50;88.80;;;;;;4998070;28;20026;-73
2020/12/14 08:25:51;;;;;;;33.38;20.48;;;5.50;88.20;;;;;;5006340;28;20469;-74
2020/12/14 08:28:30;;;;;;;32.35;20.20;;;5.50;88.50;;;;;;4993761;28;20038;-74
2020/12/14 08:30:56;;;;;;;33.25;19.88;;;5.60;88.40;;;;;;5007050;28;20029;-74
2020/12/14 08:33:22;;;;;;;34.00;19.95;;;5.60;88.10;;;;;;4996929;28;20473;-73
2020/12/14 08:35:51;;;;;;;33.67;19.38;;;5.70;87.80;;;;;;5008243;28;20346;-74
2020/12/14 08:38:22;;;;;;;32.58;18.75;;;5.70;88.00;;;;;;4983761;28;20026;-74
2020/12/14 08:41:04;;;;;;;29.63;19.17;;;5.80;87.70;;;;;;5000756;28;20026;-73
2020/12/14 08:43:33;;;;;;;32.63;18.02;;;5.90;87.00;;;;;;5009400;28;20033;-74
2020/12/14 08:46:14;;;;;;;29.20;18.48;;;6.00;86.40;;;;;;4998939;28;20018;-74
2020/12/14 08:48:43;;;;;;;31.52;18.52;;;6.00;86.30;;;;;;4983339;28;20037;-74
2020/12/14 08:51:14;;;;;;;26.73;15.95;;;6.00;85.80;;;;;;5007545;28;20044;-74
2020/12/14 08:53:41;;;;;;;30.90;18.20;;;6.00;85.80;;;;;;5010252;28;20644;-74
2020/12/14 08:56:13;;;;;;;27.25;15.70;;;6.10;86.00;;;;;;5012539;28;20030;-75
2020/12/14 08:58:57;;;;;;;30.73;15.65;;;6.30;85.10;;;;;;4983522;28;20031;-76
2020/12/14 09:01:29;;;;;;;34.17;17.17;;;6.40;85.10;;;;;;4991636;28;20029;-74
2020/12/14 09:03:56;;;;;;;;;;;6.50;84.50;;;;;;4998438;28;20049;-74
2020/12/14 09:06:34;;;;;;;24.30;14.82;;;6.80;83.60;;;;;;5003556;28;20345;-75
2020/12/14 09:09:05;;;;;;;24.88;14.35;;;7.00;82.60;;;;;;5006938;28;20420;-74
2020/12/14 09:11:33;;;;;;;22.10;13.95;;;7.10;82.00;;;;;;4978384;28;20024;-78
2020/12/14 09:14:00;;;;;;;20.73;12.32;;;7.20;81.50;;;;;;4988915;28;20027;-75
2020/12/14 09:16:26;;;;;;;20.00;12.90;;;7.20;81.00;;;;;;4984385;28;20022;-74
2020/12/14 09:18:53;;;;;;;24.15;15.02;;;7.20;80.50;;;;;;4981556;28;20034;-73
2020/12/14 09:21:19;;;;;;;16.85;10.77;;;7.40;80.20;;;;;;5008662;28;20057;-74
2020/12/14 09:24:05;;;;;;;47.78;28.98;;;7.60;79.00;;;;;;4996504;28;20030;-73
2020/12/14 09:26:31;;;;;;;16.50;10.35;;;7.60;79.50;;;;;;5007092;28;20026;-72
2020/12/14 09:28:57;;;;;;;24.73;14.50;;;7.60;79.20;;;;;;4998164;28;20026;-73
2020/12/14 09:31:22;;;;;;;15.80;9.40;;;7.70;79.30;;;;;;5007021;28;20060;-74
2020/12/14 09:33:48;;;;;;;15.30;8.88;;;7.90;78.40;;;;;;5008005;28;20108;-73
2020/12/14 09:36:15;;;;;;;15.43;9.40;;;7.90;77.90;;;;;;4986255;28;20022;-73
2020/12/14 09:38:41;;;;;;;11.88;8.18;;;7.80;78.10;;;;;;5003531;28;20152;-73
2020/12/14 09:41:06;;;;;;;15.25;9.52;;;7.80;78.60;;;;;;4979121;28;20117;-72
2020/12/14 09:43:32;;;;;;;11.98;7.88;;;7.70;78.50;;;;;;5008402;28;20029;-73
2020/12/14 09:45:59;;;;;;;13.00;8.07;;;7.80;78.40;;;;;;4997904;28;20576;-74
2020/12/14 09:48:25;;;;;;;11.45;7.75;;;7.80;78.40;;;;;;5002044;28;20022;-73
2020/12/14 09:50:51;;;;;;;10.25;6.82;;;7.70;78.40;;;;;;5004710;28;20380;-73
2020/12/14 09:53:16;;;;;;;13.23;8.23;;;7.70;78.10;;;;;;4977656;28;20035;-72
2020/12/14 09:55:43;;;;;;;9.57;6.75;;;7.70;78.50;;;;;;4978769;28;20025;-71
2020/12/14 09:58:10;;;;;;;14.05;8.77;;;7.80;78.50;;;;;;5004046;28;20026;-73
2020/12/14 10:00:35;;;;;;;9.23;6.90;;;7.80;78.10;;;;;;5002621;28;20022;-76
2020/12/14 10:03:01;;;;;;;11.02;7.18;;;7.90;77.50;;;;;;4996194;28;20456;-77
2020/12/14 10:05:27;;;;;;;11.48;7.68;;;8.00;77.80;;;;;;5007782;28;20048;-75
2020/12/14 10:07:52;;;;;;;11.63;6.90;;;8.00;77.20;;;;;;4996652;28;20469;-74
2020/12/14 10:10:18;;;;;;;12.07;8.15;;;8.00;77.00;;;;;;4985099;28;20050;-74
2020/12/14 10:12:43;;;;;;;13.63;8.23;;;7.90;77.20;;;;;;4985842;28;20030;-74
2020/12/14 10:15:09;;;;;;;14.15;8.70;;;7.90;77.30;;;;;;4995830;28;20134;-77
2020/12/14 10:17:36;;;;;;;13.18;8.40;;;7.90;77.60;;;;;;5007528;28;20018;-75
2020/12/14 10:20:07;;;;;;;11.95;7.22;;;8.00;77.60;;;;;;4997761;28;20472;-74
2020/12/14 10:22:33;;;;;;;8.63;5.93;;;8.00;77.10;;;;;;5000684;28;20576;-73
2020/12/14 10:25:00;;;;;;;8.80;5.85;;;8.00;76.70;;;;;;5005296;28;20592;-75
2020/12/14 10:27:27;;;;;;;13.10;6.55;;;8.10;76.10;;;;;;5009752;28;20029;-74
2020/12/14 10:29:52;;;;;;;10.57;6.22;;;8.10;76.30;;;;;;4996989;28;20022;-75
2020/12/14 10:32:18;;;;;;;9.00;5.93;;;8.20;76.40;;;;;;5011181;28;20105;-78
2020/12/14 10:34:44;;;;;;;7.85;5.50;;;8.30;75.40;;;;;;4999861;28;20032;-77
2020/12/14 10:37:09;;;;;;;6.72;5.47;;;8.30;75.40;;;;;;5006675;28;20028;-75
2020/12/14 10:39:36;;;;;;;9.40;4.65;;;8.30;75.20;;;;;;4994939;28;20092;-77
2020/12/14 10:42:01;;;;;;;6.75;4.88;;;8.40;75.20;;;;;;4986986;28;20023;-77
2020/12/14 10:44:30;;;;;;;8.10;4.80;;;8.40;75.10;;;;;;5001195;28;20029;-78
2020/12/14 10:47:02;;;;;;;21.48;12.38;;;8.40;74.70;;;;;;4979831;28;20483;-74
2020/12/14 10:49:27;;;;;;;16.23;8.25;;;8.50;74.90;;;;;;5008004;28;20022;-74
2020/12/14 10:51:53;;;;;;;6.25;4.55;;;8.50;74.60;;;;;;4979452;28;20018;-78
2020/12/14 10:54:19;;;;;;;5.25;4.00;;;8.50;73.70;;;;;;5009252;28;20103;-75
2020/12/14 10:56:45;;;;;;;7.43;5.43;;;8.50;74.10;;;;;;4998861;28;20030;-77
2020/12/14 10:59:11;;;;;;;12.13;4.85;;;8.50;73.80;;;;;;5006540;28;20029;-74
2020/12/14 11:01:37;;;;;;;7.65;4.82;;;8.50;73.90;;;;;;4994566;28;20041;-77
2020/12/14 11:04:02;;;;;;;6.47;4.72;;;8.40;73.90;;;;;;5004286;28;20493;-74
2020/12/14 11:06:32;;;;;;;6.15;4.80;;;8.40;73.20;;;;;;5001088;28;20145;-77
2020/12/14 11:08:58;;;;;;;6.40;4.68;;;8.50;73.60;;;;;;4979205;28;20117;-72
2020/12/14 11:11:24;;;;;;;6.72;4.88;;;8.50;73.10;;;;;;5007240;28;20033;-77
2020/12/14 11:13:50;;;;;;;6.50;4.53;;;8.50;72.70;;;;;;4995724;28;20034;-78
2020/12/14 11:16:16;;;;;;;7.90;5.15;;;8.50;72.80;;;;;;4989013;28;20060;-81
2020/12/14 11:18:42;;;;;;;9.02;6.22;;;8.50;73.20;;;;;;4988616;28;20022;-77
2020/12/14 11:21:08;;;;;;;8.43;5.32;;;8.60;73.10;;;;;;4981335;28;20184;-78
2020/12/14 11:23:33;;;;;;;8.80;5.40;;;8.50;72.40;;;;;;5010719;28;20037;-81
2020/12/14 11:25:59;;;;;;;7.78;5.28;;;8.50;72.80;;;;;;5005065;28;20017;-79
2020/12/14 11:28:27;;;;;;;9.95;5.68;;;8.50;72.90;;;;;;5004756;28;20477;-81
2020/12/14 11:30:52;;;;;;;8.30;5.43;;;8.40;72.80;;;;;;5007482;28;20014;-79
2020/12/14 11:33:18;;;;;;;7.65;5.53;;;8.40;73.30;;;;;;5013561;28;20038;-81
2020/12/14 11:35:44;;;;;;;8.32;5.93;;;8.50;72.60;;;;;;4998472;28;20026;-79
2020/12/14 11:38:09;;;;;;;8.05;6.03;;;8.50;73.40;;;;;;5010702;28;20030;-77
2020/12/14 11:40:35;;;;;;;8.23;5.82;;;8.50;72.90;;;;;;5003207;28;20018;-83
2020/12/14 11:43:01;;;;;;;8.10;5.60;;;8.50;72.70;;;;;;5008607;28;20018;-78
2020/12/14 11:45:27;;;;;;;10.05;7.00;;;8.40;72.80;;;;;;4997354;28;20595;-79
2020/12/14 11:47:54;;;;;;;13.30;7.72;;;8.40;73.00;;;;;;4991207;28;20029;-79
2020/12/14 11:50:20;;;;;;;34.03;17.20;;;8.30;73.40;;;;;;5002842;28;20105;-78
2020/12/14 11:52:46;;;;;;;10.52;7.63;;;8.30;74.20;;;;;;5001630;28;20554;-77
2020/12/14 11:55:13;;;;;;;20.80;12.23;;;8.20;73.50;;;;;;5009743;28;20144;-77
2020/12/14 11:57:39;;;;;;;18.85;11.52;;;8.20;73.50;;;;;;4997022;28;20078;-78
2020/12/14 12:00:07;;;;;;;14.27;9.48;;;8.20;73.60;;;;;;4989518;28;20030;-80
2020/12/14 12:02:33;;;;;;;13.65;8.77;;;8.20;73.90;;;;;;5004223;28;20022;-73
2020/12/14 12:04:58;;;;;;;15.35;9.27;;;8.10;73.90;;;;;;4998642;28;20489;-73
2020/12/14 12:07:24;;;;;;;14.18;8.63;;;8.10;73.60;;;;;;5009869;28;20112;-74
2020/12/14 12:09:50;;;;;;;14.10;9.10;;;8.10;73.80;;;;;;4998444;28;20018;-74
2020/12/14 12:12:15;;;;;;;23.52;8.35;;;8.20;73.40;;;;;;4987904;28;20042;-74
2020/12/14 12:14:41;;;;;;;13.30;8.52;;;8.10;73.60;;;;;;5005346;28;20022;-74
2020/12/14 12:17:07;;;;;;;17.67;8.85;;;8.10;73.90;;;;;;4980595;28;20030;-73
2020/12/14 12:19:32;;;;;;;14.68;8.65;;;8.10;74.00;;;;;;4991979;28;20040;-77
2020/12/14 12:21:59;;;;;;;14.13;9.52;;;8.10;74.00;;;;;;4999408;28;20018;-79
2020/12/14 12:24:25;;;;;;;15.82;10.40;;;8.10;73.80;;;;;;4991389;28;20014;-77
2020/12/14 12:26:51;;;;;;;16.77;10.27;;;8.10;73.90;;;;;;5011573;28;20069;-76
2020/12/14 12:29:18;;;;;;;18.30;10.38;;;8.10;74.10;;;;;;4996613;28;20500;-76
2020/12/14 12:31:51;;;;;;;19.10;11.27;;;8.00;74.40;;;;;;5012708;28;20030;-76
2020/12/14 12:34:18;;;;;;;18.05;10.90;;;8.00;74.00;;;;;;5004536;28;20045;-76
2020/12/14 12:36:54;;;;;;;20.13;12.35;;;8.00;74.50;;;;;;4978875;28;20659;-75
2020/12/14 12:39:20;;;;;;;20.52;12.38;;;8.00;74.40;;;;;;4993648;28;20500;-76
2020/12/14 12:41:48;;;;;;;25.67;15.27;;;8.00;74.80;;;;;;5012796;28;20018;-77
2020/12/14 12:44:15;;;;;;;21.52;13.23;;;8.00;74.50;;;;;;4988894;28;20637;-75
2020/12/14 12:46:41;;;;;;;21.20;12.77;;;8.00;74.20;;;;;;5001210;28;20034;-78